Terminal Aerodrome Forecast
Issued by NWS Blacksburg, VA

Current Version | Previous Version | Text Only | Print | Product List | Glossary Off
Versions: 1 2 3 4 5 6 7 8 9 10 11 12 13 14 15 16 17 18 19 20 21 22 23 24 25 26 27 28 29 30 31 32 33 34 35 36 37 38 39

739
FTUS41 KRNK 220520
TAFBLF
TAF
KBLF 220520Z 2206/2306 VRB03KT 4SM -RA BR OVC030
      TEMPO 2206/2210 2SM -RA OVC012
     FM221000 VRB03KT 2SM -RA BR OVC010
     FM221400 VRB03KT 2SM -RA BR OVC007
     FM222000 18005KT 4SM BR OVC007=

USA.gov is the U.S. government's official web portal to all federal, state and local government web resources and services.